Terminal Aerodrome Forecast
Issued by NWS Atlanta, GA

Home | Current Version | Previous Version | Text Only | Print | Product List | Glossary On
Versions: 1 2 3 4 5 6 7 8 9 10 11 12 13
274
FTUS42 KFFC 131737
TAFCSG
TAF
KCSG 131737Z 1318/1418 35009KT P6SM SKC
     FM140000 01004KT P6SM SKC
     FM141000 07004KT P6SM SCT150
     FM141200 10008KT P6SM SCT150=

USA.gov is the U.S. government's official web portal to all federal, state and local government web resources and services.